Time;durP1;ratioP1;P1;durP2;ratioP2;P2;SDS_P1;SDS_P2;PMS_P1;PMS_P2;Temp;Humidity;BMP_temperature;BMP_pressure;BME280_temperature;BME280_humidity;BME280_pressure;Samples;Min_cycle;Max_cycle;Signal;HPM_P1;HPM_P2
2022/01/31 00:00:12;;;;;;;7.13;5.20;;;;;;;1.19;98.19;151673.97;5037722;28;20912;-80
2022/01/31 00:02:51;;;;;;;7.60;5.17;;;;;;;1.18;98.79;151671.38;5055079;28;20954;-80
2022/01/31 00:05:26;;;;;;;6.27;4.60;;;;;;;1.16;98.43;151667.56;5054817;28;20446;-80
2022/01/31 00:08:02;;;;;;;11.40;5.07;;;;;;;1.19;98.52;151675.22;5035072;28;20484;-80
2022/01/31 00:10:39;;;;;;;10.50;4.70;;;;;;;1.19;99.50;151675.22;5050409;28;20766;-80
2022/01/31 00:13:20;;;;;;;9.30;4.90;;;;;;;1.21;99.36;151680.41;5054594;28;20439;-80
2022/01/31 00:15:57;;;;;;;8.33;4.70;;;;;;;1.22;99.90;151682.94;5053770;28;20567;-80
2022/01/31 00:18:32;;;;;;;8.10;5.07;;;;;;;1.24;99.19;151686.81;5053315;28;20544;-80
2022/01/31 00:21:08;;;;;;;10.63;4.80;;;;;;;1.26;98.85;151690.66;5051943;28;20774;-80
2022/01/31 00:23:44;;;;;;;10.27;5.10;;;;;;;1.32;99.40;151706.06;5037914;28;20450;-80
2022/01/31 00:26:22;;;;;;;11.20;5.30;;;;;;;1.32;99.02;151706.06;5070288;28;20442;-80
2022/01/31 00:28:57;;;;;;;14.57;6.57;;;;;;;1.33;99.51;151709.91;5052683;28;20427;-80
2022/01/31 00:31:33;;;;;;;10.20;5.47;;;;;;;1.34;99.25;151711.19;5038776;28;20766;-80
2022/01/31 00:34:08;;;;;;;6.07;5.03;;;;;;;1.38;100.00;151721.50;5041880;28;20450;-80
2022/01/31 00:36:44;;;;;;;6.73;4.80;;;;;;;1.38;99.82;151722.75;5052058;28;20414;-80
2022/01/31 00:39:19;;;;;;;11.33;4.80;;;;;;;1.40;99.94;151726.63;5051610;28;20540;-80
2022/01/31 00:41:56;;;;;;;6.70;4.80;;;;;;;1.42;99.77;151731.75;5070623;28;20477;-80
2022/01/31 00:44:40;;;;;;;12.00;5.80;;;;;;;1.44;99.70;151738.19;5038482;28;20501;-80
2022/01/31 00:47:22;;;;;;;9.17;5.43;;;;;;;1.46;99.83;151742.00;5050538;28;20442;-80
2022/01/31 00:50:06;;;;;;;7.70;5.27;;;;;;;1.47;99.93;151744.59;5037646;28;20437;-80
2022/01/31 00:52:43;;;;;;;15.17;6.63;;;;;;;1.49;100.00;151751.03;5037972;28;20852;-80
2022/01/31 00:55:19;;;;;;;10.87;5.43;;;;;;;1.49;100.00;151749.72;5052529;28;20471;-80
2022/01/31 00:57:56;;;;;;;8.80;5.47;;;;;;;1.49;100.00;151749.72;5048624;28;20446;-80
2022/01/31 01:00:32;;;;;;;11.70;5.43;;;;;;;1.51;100.00;151754.91;5051272;28;20846;-80
2022/01/31 01:03:07;;;;;;;9.07;5.60;;;;;;;1.57;100.00;151770.28;5053701;28;20424;-80
2022/01/31 01:05:43;;;;;;;8.97;5.13;;;;;;;1.60;100.00;151778.00;5070390;28;20459;-80
2022/01/31 01:08:19;;;;;;;7.87;5.20;;;;;;;1.62;100.00;151783.13;5043230;28;20460;-80
2022/01/31 01:10:54;;;;;;;6.80;6.10;;;;;;;1.66;100.00;151793.44;5031954;28;20983;-80
2022/01/31 01:13:31;;;;;;;10.83;5.87;;;;;;;1.64;100.00;151788.31;5054182;28;20902;-80
2022/01/31 01:16:07;;;;;;;7.70;5.20;;;;;;;1.67;100.00;151795.97;5042924;28;20857;-80
2022/01/31 01:18:43;;;;;;;6.17;5.53;;;;;;;1.64;100.00;151788.31;5039000;28;20840;-80
2022/01/31 01:21:18;;;;;;;11.93;5.40;;;;;;;1.65;100.00;151790.84;5051664;28;20546;-80
2022/01/31 01:23:54;;;;;;;7.63;5.37;;;;;;;1.64;100.00;151788.31;5053341;28;20450;-80
2022/01/31 01:26:30;;;;;;;8.43;5.23;;;;;;;1.68;100.00;151798.56;5038237;28;20545;-80
2022/01/31 01:29:11;;;;;;;6.90;5.37;;;;;;;1.67;100.00;151795.97;5037423;28;20948;-80
2022/01/31 01:31:48;;;;;;;9.23;4.30;;;;;;;1.73;100.00;151811.41;5058495;28;20437;-80
2022/01/31 01:34:25;;;;;;;6.43;5.20;;;;;;;1.75;100.00;151816.56;5036732;28;20451;-80
2022/01/31 01:37:03;;;;;;;12.20;5.40;;;;;;;1.76;100.00;151819.13;5037161;28;20504;-80
2022/01/31 01:39:39;;;;;;;9.33;4.40;;;;;;;1.77;100.00;151821.72;5047591;28;20447;-80
2022/01/31 01:42:15;;;;;;;9.43;5.60;;;;;;;1.80;100.00;151830.69;5050274;28;20451;-80
2022/01/31 01:44:53;;;;;;;6.50;5.33;;;;;;;1.84;100.00;151839.72;5036368;28;20446;-80
2022/01/31 01:47:31;;;;;;;10.80;4.27;;;;;;;1.87;100.00;151847.41;5054335;28;20480;-80
2022/01/31 01:50:07;;;;;;;10.53;5.57;;;;;;;1.83;100.00;151837.13;5037242;28;20451;-80
2022/01/31 01:52:44;;;;;;;9.40;4.97;;;;;;;1.83;100.00;151837.13;5050871;28;20810;-80
2022/01/31 01:55:20;;;;;;;10.80;5.07;;;;;;;1.83;100.00;151837.13;5039404;28;20472;-80
2022/01/31 01:57:56;;;;;;;8.70;5.57;;;;;;;1.81;100.00;151832.00;5050690;28;20455;-80
2022/01/31 02:00:49;;;;;;;6.93;4.80;;;;;;;1.81;100.00;151832.00;5041926;28;20459;-80
2022/01/31 02:03:28;;;;;;;8.33;5.50;;;;;;;1.84;100.00;151839.72;5040525;28;20439;-80
2022/01/31 02:06:04;;;;;;;6.43;4.70;;;;;;;1.87;100.00;151847.41;5041260;28;20483;-80
2022/01/31 02:08:41;;;;;;;9.23;5.00;;;;;;;1.88;100.00;151848.72;5040702;28;20431;-80
2022/01/31 02:11:20;;;;;;;4.83;4.37;;;;;;;1.86;100.00;151844.84;5040585;28;20454;-80
2022/01/31 02:13:58;;;;;;;14.13;5.90;;;;;;;1.84;100.00;151841.00;5055440;28;20447;-80
2022/01/31 02:16:55;;;;;;;7.53;4.97;;;;;;;1.86;100.00;151844.84;5055713;28;20475;-80
2022/01/31 02:19:38;;;;;;;7.80;4.93;;;;;;;1.84;99.92;151839.72;5040443;28;20798;-80
2022/01/31 02:22:32;;;;;;;6.70;4.20;;;;;;;1.86;99.92;151844.84;5053960;28;20451;-80
2022/01/31 02:25:09;;;;;;;8.97;4.90;;;;;;;1.86;100.00;151844.84;5071830;28;20467;-80
2022/01/31 02:28:04;;;;;;;8.80;5.13;;;;;;;1.84;100.00;151841.00;5056090;28;20880;-80
2022/01/31 02:30:40;;;;;;;7.27;5.43;;;;;;;1.83;100.00;151837.13;5057327;28;20796;-80
2022/01/31 02:33:18;;;;;;;13.20;5.77;;;;;;;1.82;100.00;151834.56;5025544;28;20964;-80
2022/01/31 02:35:56;;;;;;;9.30;5.23;;;;;;;1.80;100.00;151830.69;5073905;28;20507;-80
2022/01/31 02:38:33;;;;;;;13.60;5.43;;;;;;;1.78;100.00;151825.56;5038788;28;20451;-80
2022/01/31 02:41:12;;;;;;;9.57;5.23;;;;;;;1.77;100.00;151821.72;5050232;28;20451;-80
2022/01/31 02:43:50;;;;;;;9.20;5.90;;;;;;;1.76;100.00;151820.44;5053534;28;20440;-80
2022/01/31 02:46:29;;;;;;;8.43;4.93;;;;;;;1.77;100.00;151821.72;5052687;28;20448;-80
2022/01/31 02:49:07;;;;;;;6.13;4.83;;;;;;;1.79;100.00;151826.84;5054961;28;20459;-80
2022/01/31 02:51:47;;;;;;;9.20;4.83;;;;;;;1.76;100.00;151820.44;5057050;28;20483;-80
2022/01/31 02:54:24;;;;;;;8.83;5.20;;;;;;;1.73;100.00;151811.41;5039933;28;20439;-80
2022/01/31 02:57:00;;;;;;;10.20;5.27;;;;;;;1.74;100.00;151815.31;5038402;28;20805;-80
2022/01/31 02:59:36;;;;;;;5.00;4.50;;;;;;;1.73;100.00;151811.41;5040409;28;20446;-80
2022/01/31 03:02:14;;;;;;;7.03;4.90;;;;;;;1.74;100.00;151815.31;5039404;28;20446;-80
2022/01/31 03:04:49;;;;;;;5.40;4.80;;;;;;;1.70;100.00;151803.69;5042890;28;20455;-80
2022/01/31 03:07:25;;;;;;;8.47;5.23;;;;;;;1.69;100.00;151801.16;5039901;28;20798;-81
2022/01/31 03:10:02;;;;;;;8.23;5.80;;;;;;;1.70;99.58;151803.69;5054357;28;20452;-80
2022/01/31 03:12:39;;;;;;;10.07;6.13;;;;;;;1.70;99.94;151803.69;5038482;28;20467;-80
2022/01/31 03:15:15;;;;;;;8.10;5.20;;;;;;;1.66;99.78;151794.75;5034765;28;20809;-80
2022/01/31 03:18:27;;;;;;;12.97;5.70;;;;;;;1.64;100.00;151789.56;5055320;28;20457;-80
2022/01/31 03:21:02;;;;;;;10.47;5.50;;;;;;;1.67;100.00;151797.28;5039681;28;20458;-80
2022/01/31 03:23:39;;;;;;;10.20;5.90;;;;;;;1.70;100.00;151803.69;5039643;28;20518;-79
2022/01/31 03:26:16;;;;;;;9.00;4.93;;;;;;;1.69;100.00;151802.47;5038313;28;20508;-80
2022/01/31 03:28:53;;;;;;;6.57;5.23;;;;;;;1.69;100.00;151801.16;5055030;28;20474;-80
2022/01/31 03:31:29;;;;;;;8.93;5.00;;;;;;;1.71;99.58;151806.28;5034905;28;20973;-80
2022/01/31 03:34:05;;;;;;;9.60;5.23;;;;;;;1.73;99.57;151812.72;5063450;28;20446;-80
2022/01/31 03:36:42;;;;;;;7.57;4.57;;;;;;;1.69;98.86;151802.47;5022825;28;20471;-80
2022/01/31 03:39:20;;;;;;;9.77;6.03;;;;;;;1.69;100.00;151801.16;5020676;28;20432;-80
2022/01/31 03:41:57;;;;;;;10.03;5.60;;;;;;;1.71;99.97;151806.28;5031983;28;20542;-80
2022/01/31 03:44:33;;;;;;;10.47;5.07;;;;;;;1.66;99.32;151793.44;5033680;28;20455;-80
2022/01/31 03:47:09;;;;;;;8.43;5.20;;;;;;;1.66;99.63;151793.44;5034476;28;20823;-80
2022/01/31 03:49:44;;;;;;;9.10;5.50;;;;;;;1.71;100.00;151807.59;5042275;28;20449;-80
2022/01/31 03:52:23;;;;;;;9.53;4.93;;;;;;;1.72;100.00;151810.13;5049731;28;20457;-80
2022/01/31 03:55:00;;;;;;;9.17;5.70;;;;;;;1.70;100.00;151803.69;5019597;28;20446;-80
2022/01/31 03:57:37;;;;;;;12.10;5.30;;;;;;;1.70;100.00;151803.69;5052078;28;20428;-79
2022/01/31 04:00:32;;;;;;;8.47;5.03;;;;;;;1.71;100.00;151807.59;5050217;28;20788;-80
2022/01/31 04:03:07;;;;;;;9.03;5.20;;;;;;;1.72;100.00;151810.13;5049339;28;20438;-80
2022/01/31 04:05:43;;;;;;;9.03;5.70;;;;;;;1.73;100.00;151811.41;5034248;28;20455;-79
2022/01/31 04:08:19;;;;;;;8.63;5.60;;;;;;;1.74;100.00;151814.00;5028382;28;20443;-79
2022/01/31 04:10:54;;;;;;;8.33;5.77;;;;;;;1.75;100.00;151816.56;5042662;28;20444;-79
2022/01/31 04:13:31;;;;;;;9.50;5.63;;;;;;;1.78;100.00;151824.25;5064725;28;20479;-79
2022/01/31 04:16:07;;;;;;;5.73;5.17;;;;;;;1.77;100.00;151821.72;5032733;28;20998;-79
2022/01/31 04:18:42;;;;;;;9.03;5.30;;;;;;;1.80;100.00;151829.44;5050404;28;20516;-79
2022/01/31 04:21:18;;;;;;;6.50;4.80;;;;;;;1.78;100.00;151824.25;5037016;28;20552;-78
2022/01/31 04:23:54;;;;;;;6.80;5.70;;;;;;;1.82;100.00;151834.56;5044111;28;20444;-79
2022/01/31 04:26:33;;;;;;;10.73;5.33;;;;;;;1.79;100.00;151828.16;5039606;28;20444;-79
2022/01/31 04:29:14;;;;;;;9.67;5.50;;;;;;;1.80;99.67;151829.44;5034307;28;20512;-79
2022/01/31 04:31:51;;;;;;;9.20;5.67;;;;;;;1.81;100.00;151832.00;5043464;28;20919;-79
2022/01/31 04:34:27;;;;;;;6.37;5.40;;;;;;;1.85;100.00;151842.28;5047560;28;20459;-78
2022/01/31 04:37:02;;;;;;;6.73;5.37;;;;;;;1.85;100.00;151843.53;5033546;28;20462;-80
2022/01/31 04:39:38;;;;;;;9.77;5.60;;;;;;;1.86;99.72;151844.84;5033646;28;20448;-80
2022/01/31 04:42:13;;;;;;;10.03;5.67;;;;;;;1.88;100.00;151848.72;5035333;28;20450;-80
2022/01/31 04:44:53;;;;;;;7.33;5.03;;;;;;;1.87;100.00;151846.13;5049345;28;20438;-80
2022/01/31 04:47:29;;;;;;;8.80;6.13;;;;;;;1.85;100.00;151842.28;5052352;28;20550;-80
2022/01/31 04:50:05;;;;;;;6.80;5.40;;;;;;;1.87;100.00;151847.41;5033516;28;20458;-80
2022/01/31 04:52:42;;;;;;;9.07;5.67;;;;;;;1.87;100.00;151847.41;5032006;28;20460;-80
2022/01/31 04:55:18;;;;;;;8.13;5.80;;;;;;;1.87;100.00;151847.41;5019141;28;20482;-80
2022/01/31 04:57:54;;;;;;;12.17;5.50;;;;;;;1.88;100.00;151849.97;5039155;28;20437;-80
2022/01/31 05:00:30;;;;;;;8.10;5.70;;;;;;;1.90;100.00;151853.84;5049376;28;20556;-80
2022/01/31 05:03:12;;;;;;;8.90;5.63;;;;;;;1.91;100.00;151857.69;5049992;28;20529;-80
2022/01/31 05:05:48;;;;;;;9.30;6.53;;;;;;;1.89;100.00;151851.25;5047986;28;20840;-80
2022/01/31 05:08:27;;;;;;;10.37;5.80;;;;;;;1.91;100.00;151857.69;5040161;28;20447;-80
2022/01/31 05:11:03;;;;;;;7.13;5.20;;;;;;;1.94;100.00;151865.41;5033156;28;20462;-80
2022/01/31 05:13:39;;;;;;;12.23;6.50;;;;;;;1.92;100.00;151860.28;5034917;28;20439;-80
2022/01/31 05:16:16;;;;;;;10.63;5.40;;;;;;;1.98;100.00;151874.41;5039890;28;20474;-80
2022/01/31 05:18:51;;;;;;;12.90;5.80;;;;;;;1.98;100.00;151874.41;5032010;28;20531;-80
2022/01/31 05:21:27;;;;;;;10.60;5.17;;;;;;;2.04;100.00;151891.09;5033563;28;20451;-80
2022/01/31 05:24:03;;;;;;;7.20;4.47;;;;;;;2.07;100.00;151898.81;5032641;28;20458;-80
2022/01/31 05:26:39;;;;;;;7.80;5.33;;;;;;;2.07;100.00;151898.81;5032261;28;20432;-80
2022/01/31 05:29:15;;;;;;;7.20;4.93;;;;;;;2.18;100.00;151925.81;5029789;28;20439;-80
2022/01/31 05:31:52;;;;;;;7.23;4.70;;;;;;;2.16;100.00;151921.97;5041851;28;20450;-80
2022/01/31 05:34:28;;;;;;;7.20;4.60;;;;;;;2.16;99.93;151920.69;5056891;28;20458;-80
2022/01/31 05:37:04;;;;;;;10.50;4.57;;;;;;;2.19;100.00;151928.41;5055330;28;20478;-80
2022/01/31 05:39:40;;;;;;;8.83;5.23;;;;;;;2.18;100.00;151927.13;5056151;28;20446;-80
2022/01/31 05:42:15;;;;;;;8.43;4.83;;;;;;;2.21;100.00;151934.84;5056642;28;20437;-80
2022/01/31 05:44:52;;;;;;;6.90;4.97;;;;;;;2.19;100.00;151929.72;5067770;28;20777;-80
2022/01/31 05:47:29;;;;;;;12.37;4.27;;;;;;;2.19;100.00;151928.41;5073625;28;20437;-80
2022/01/31 05:50:05;;;;;;;7.83;4.50;;;;;;;2.20;99.99;151932.25;5055565;28;20442;-80
2022/01/31 05:52:41;;;;;;;6.00;4.13;;;;;;;2.20;100.00;151932.25;5055946;28;20473;-80
2022/01/31 05:55:17;;;;;;;7.33;4.70;;;;;;;2.20;100.00;151930.94;5054732;28;20464;-80
2022/01/31 05:57:53;;;;;;;8.40;4.60;;;;;;;2.23;100.00;151939.97;5056524;28;20562;-80
2022/01/31 06:00:29;;;;;;;5.53;4.33;;;;;;;2.27;100.00;151950.28;5056615;28;20805;-80
2022/01/31 06:03:08;;;;;;;9.23;4.10;;;;;;;2.34;100.00;151968.25;5044838;28;21066;-80
2022/01/31 06:05:57;;;;;;;6.10;3.70;;;;;;;2.39;99.26;151981.13;5070166;28;20450;-79
2022/01/31 06:08:35;;;;;;;5.73;3.80;;;;;;;2.46;98.94;151997.84;5045860;28;20435;-80
2022/01/31 06:11:10;;;;;;;5.87;3.97;;;;;;;2.52;98.27;152011.97;5054379;28;20470;-80
2022/01/31 06:13:47;;;;;;;7.20;4.13;;;;;;;2.58;97.82;152027.41;5039472;28;20450;-80
2022/01/31 06:16:23;;;;;;;4.30;3.53;;;;;;;2.62;98.06;152037.72;5073829;28;20478;-80
2022/01/31 06:19:01;;;;;;;5.40;3.63;;;;;;;2.59;98.59;152030.00;5056725;28;20455;-80
2022/01/31 06:21:37;;;;;;;8.17;3.50;;;;;;;2.59;98.60;152031.28;5040366;28;20440;-80
2022/01/31 06:24:15;;;;;;;8.13;3.93;;;;;;;2.61;98.82;152035.13;5039398;28;20430;-80
2022/01/31 06:26:51;;;;;;;7.30;4.00;;;;;;;2.61;99.54;152036.44;5052549;28;20451;-80
2022/01/31 06:29:33;;;;;;;5.13;4.10;;;;;;;2.62;99.99;152037.72;5040776;28;20454;-80
2022/01/31 06:32:25;;;;;;;7.63;4.60;;;;;;;2.57;100.00;152026.13;5031233;28;20476;-80
2022/01/31 06:35:02;;;;;;;5.70;3.60;;;;;;;2.58;100.00;152027.41;5055017;28;20573;-80
2022/01/31 06:37:38;;;;;;;8.30;4.23;;;;;;;2.58;100.00;152027.41;5055895;28;20495;-80
2022/01/31 06:40:13;;;;;;;8.83;4.20;;;;;;;2.54;100.00;152017.16;5038410;28;20450;-80
2022/01/31 06:42:49;;;;;;;8.97;3.60;;;;;;;2.51;100.00;152009.41;5050052;28;20443;-80
2022/01/31 06:45:24;;;;;;;5.67;4.13;;;;;;;2.49;100.00;152005.53;5053693;28;20450;-80
2022/01/31 06:48:00;;;;;;;5.90;4.33;;;;;;;2.50;100.00;152006.84;5039883;28;20431;-80
2022/01/31 06:50:37;;;;;;;7.33;4.97;;;;;;;2.50;100.00;152006.84;5053485;28;20454;-80
2022/01/31 06:53:16;;;;;;;6.10;3.87;;;;;;;2.50;100.00;152006.84;5071201;28;20537;-80
2022/01/31 06:55:52;;;;;;;6.80;4.20;;;;;;;2.44;100.00;151993.97;5039183;28;20454;-80
2022/01/31 06:58:28;;;;;;;5.90;4.17;;;;;;;2.44;100.00;151992.69;5053306;28;20431;-80
2022/01/31 07:01:03;;;;;;;7.03;4.03;;;;;;;2.47;100.00;152000.41;5037623;28;20454;-80
2022/01/31 07:03:40;;;;;;;6.03;3.97;;;;;;;2.48;100.00;152003.00;5051712;28;20447;-80
2022/01/31 07:06:17;;;;;;;8.87;4.57;;;;;;;2.52;100.00;152011.97;5034255;28;20450;-80
2022/01/31 07:08:53;;;;;;;7.00;4.13;;;;;;;2.52;100.00;152013.25;5030769;28;20446;-80
2022/01/31 07:11:33;;;;;;;6.07;4.57;;;;;;;2.47;100.00;152001.69;5051397;28;20533;-79
2022/01/31 07:14:29;;;;;;;7.43;4.87;;;;;;;2.45;100.00;151995.28;5043089;28;20985;-80
2022/01/31 07:17:06;;;;;;;7.50;4.37;;;;;;;2.50;100.00;152006.84;5068646;28;20464;-80
2022/01/31 07:19:42;;;;;;;9.70;4.97;;;;;;;2.46;100.00;151997.84;5044933;28;20779;-80
2022/01/31 07:22:21;;;;;;;6.90;5.03;;;;;;;2.50;100.00;152006.84;5044838;28;20440;-80
2022/01/31 07:25:03;;;;;;;5.17;3.87;;;;;;;2.52;100.00;152011.97;5039124;28;20920;-80
2022/01/31 07:27:39;;;;;;;5.33;3.43;;;;;;;2.53;100.00;152014.56;5050575;28;20478;-80
2022/01/31 07:30:14;;;;;;;8.53;4.67;;;;;;;2.45;100.00;151995.28;5036080;28;20744;-80
2022/01/31 07:32:50;;;;;;;6.07;4.53;;;;;;;2.44;100.00;151992.69;5051792;28;20430;-80
2022/01/31 07:35:26;;;;;;;6.97;4.50;;;;;;;2.40;100.00;151983.72;5066231;28;20480;-80
2022/01/31 07:38:04;;;;;;;6.80;5.00;;;;;;;2.47;100.00;152001.69;5047313;28;20606;-80
2022/01/31 07:40:39;;;;;;;7.67;3.97;;;;;;;2.49;100.00;152004.28;5026752;28;20460;-79
2022/01/31 07:43:15;;;;;;;8.00;4.67;;;;;;;2.49;100.00;152005.53;5050511;28;20836;-80
2022/01/31 07:45:50;;;;;;;8.37;4.70;;;;;;;2.50;100.00;152006.84;5017866;28;21028;-80
2022/01/31 07:48:29;;;;;;;8.73;4.60;;;;;;;2.44;100.00;151993.97;5031369;28;20435;-80
2022/01/31 07:51:04;;;;;;;6.20;4.70;;;;;;;2.45;100.00;151995.28;5002219;28;20479;-80
2022/01/31 07:53:42;;;;;;;5.27;3.70;;;;;;;2.50;100.00;152006.84;5043435;28;20431;-80
2022/01/31 07:56:18;;;;;;;10.13;5.20;;;;;;;2.54;100.00;152017.16;5048092;28;20452;-80
2022/01/31 07:58:54;;;;;;;6.23;3.70;;;;;;;2.54;100.00;152018.44;5029576;28;20530;-80
2022/01/31 08:01:30;;;;;;;7.00;4.07;;;;;;;2.58;100.00;152028.72;5030711;28;20451;-80
2022/01/31 08:04:05;;;;;;;11.10;4.90;;;;;;;2.63;100.00;152040.25;5011171;28;20480;-80
2022/01/31 08:06:41;;;;;;;5.50;3.73;;;;;;;2.64;100.00;152044.16;5016649;28;20436;-79
2022/01/31 08:09:18;;;;;;;5.30;3.80;;;;;;;2.66;100.00;152048.00;5013393;28;20442;-79
2022/01/31 08:11:54;;;;;;;4.33;3.40;;;;;;;2.65;100.00;152045.44;5018529;28;20457;-79
2022/01/31 08:14:30;;;;;;;4.30;3.10;;;;;;;2.68;100.00;152053.13;5049160;28;20452;-80
2022/01/31 08:17:06;;;;;;;8.80;3.07;;;;;;;2.69;100.00;152057.00;5033800;28;20474;-80
2022/01/31 08:19:41;;;;;;;13.47;2.73;;;;;;;2.74;100.00;152068.56;5023508;28;20834;-80
2022/01/31 08:22:17;;;;;;;2.97;2.63;;;;;;;2.73;100.00;152067.28;5024384;28;20454;-79
2022/01/31 08:24:54;;;;;;;2.90;2.00;;;;;;;2.77;100.00;152076.28;5031518;28;21060;-79
2022/01/31 08:27:29;;;;;;;2.33;1.77;;;;;;;2.80;100.00;152085.31;5033565;28;20433;-79
2022/01/31 08:30:11;;;;;;;3.10;2.63;;;;;;;2.83;100.00;152091.75;5033506;28;20455;-79
2022/01/31 08:32:58;;;;;;;3.33;2.13;;;;;;;2.82;100.00;152089.16;5029877;28;20488;-80
2022/01/31 08:35:50;;;;;;;1.90;1.70;;;;;;;2.86;100.00;152099.47;5043464;28;20470;-79
2022/01/31 08:38:26;;;;;;;2.30;1.90;;;;;;;2.86;100.00;152099.47;5051863;28;20498;-79
2022/01/31 08:41:04;;;;;;;3.27;1.90;;;;;;;2.90;100.00;152109.75;5053933;28;20448;-80
2022/01/31 08:43:39;;;;;;;2.17;1.50;;;;;;;2.95;100.00;152123.91;5037251;28;20946;-80
2022/01/31 08:46:15;;;;;;;2.10;1.50;;;;;;;3.00;100.00;152136.75;5037374;28;20776;-79
2022/01/31 08:48:51;;;;;;;3.17;1.70;;;;;;;3.04;100.00;152145.78;5037745;28;20848;-80
2022/01/31 08:51:26;;;;;;;1.80;1.33;;;;;;;3.13;100.00;152168.91;5071855;28;20453;-79
2022/01/31 08:54:02;;;;;;;2.20;1.30;;;;;;;3.15;100.00;152174.03;5035876;28;20434;-79
2022/01/31 08:56:44;;;;;;;2.27;1.13;;;;;;;3.18;100.00;152181.78;5038006;28;20433;-79
2022/01/31 08:59:23;;;;;;;1.43;1.10;;;;;;;3.22;100.00;152190.81;5038489;28;20452;-79
2022/01/31 09:02:06;;;;;;;1.43;1.07;;;;;;;3.24;100.00;152197.22;5073989;28;20436;-79
2022/01/31 09:04:47;;;;;;;2.03;1.30;;;;;;;3.25;100.00;152198.53;5036191;28;20450;-79
2022/01/31 09:07:24;;;;;;;1.73;1.63;;;;;;;3.41;100.00;152241.00;5051853;28;20951;-79
2022/01/31 09:10:01;;;;;;;2.53;1.50;;;;;;;3.49;100.00;152261.59;5056468;28;20541;-80
2022/01/31 09:12:38;;;;;;;1.50;1.07;;;;;;;3.67;100.00;152306.66;5041040;28;20578;-79
2022/01/31 09:15:14;;;;;;;3.47;1.73;;;;;;;3.76;100.00;152328.53;5072659;28;20558;-80
2022/01/31 09:17:50;;;;;;;1.70;1.40;;;;;;;3.75;100.00;152325.94;5042004;28;20820;-80
2022/01/31 09:20:25;;;;;;;1.53;1.20;;;;;;;3.80;100.00;152338.81;5055594;28;20457;-79
2022/01/31 09:23:02;;;;;;;2.33;1.00;;;;;;;3.77;100.00;152331.09;5028838;28;20527;-80
2022/01/31 09:25:44;;;;;;;1.53;1.37;;;;;;;3.85;100.00;152351.69;5057219;28;20842;-79
2022/01/31 09:28:24;;;;;;;4.10;1.63;;;;;;;3.93;100.00;152372.28;5057298;28;20958;-80
2022/01/31 09:30:59;;;;;;;2.67;1.50;;;;;;;4.01;100.00;152392.91;5074160;28;20447;-79
2022/01/31 09:33:35;;;;;;;1.90;1.33;;;;;;;4.05;100.00;152404.47;5053770;28;20867;-80
2022/01/31 09:36:10;;;;;;;1.60;1.40;;;;;;;4.10;100.00;152416.09;5039558;28;20481;-79
2022/01/31 09:38:46;;;;;;;1.80;1.03;;;;;;;4.13;100.00;152423.84;5055164;28;20449;-80
2022/01/31 09:41:25;;;;;;;3.83;2.07;;;;;;;4.09;100.00;152414.81;5017607;28;20453;-80
2022/01/31 09:44:11;;;;;;;2.50;2.07;;;;;;;4.15;100.00;152428.97;5053381;28;20452;-80
2022/01/31 09:47:03;;;;;;;1.40;1.20;;;;;;;4.10;100.00;152417.34;5035471;28;20435;-80
2022/01/31 09:49:38;;;;;;;2.00;1.40;;;;;;;4.16;100.00;152432.81;5029883;28;20449;-79
2022/01/31 09:52:14;;;;;;;2.67;1.43;;;;;;;4.21;100.00;152445.69;5038156;28;20866;-80
2022/01/31 09:54:51;;;;;;;2.33;1.90;;;;;;;4.23;100.00;152449.59;5035508;28;20481;-80
2022/01/31 09:57:27;;;;;;;1.60;1.40;;;;;;;4.18;100.00;152436.72;5040556;28;21046;-80
2022/01/31 10:00:05;;;;;;;2.37;1.73;;;;;;;4.20;100.00;152443.16;5021093;28;20445;-79
2022/01/31 10:03:07;;;;;;;1.80;1.43;;;;;;;4.17;100.00;152434.13;5034467;28;20858;-79
2022/01/31 10:05:43;;;;;;;2.93;2.10;;;;;;;4.19;100.00;152440.56;5054739;28;20436;-79
2022/01/31 10:08:19;;;;;;;2.90;2.13;;;;;;;4.14;100.00;152426.38;5010749;28;20473;-80
2022/01/31 10:11:00;;;;;;;2.93;1.80;;;;;;;4.15;100.00;152428.97;5035268;28;20461;-79
2022/01/31 10:16:32;;;;;;;2.90;1.63;;;;;;;4.15;100.00;152430.28;5020122;28;20476;-79
2022/01/31 10:19:10;;;;;;;3.03;2.03;;;;;;;4.12;100.00;152422.53;5027223;28;20462;-79
2022/01/31 10:22:10;;;;;;;2.80;1.67;;;;;;;4.16;98.74;152431.53;5046990;28;20458;-80
2022/01/31 10:24:48;;;;;;;4.90;2.13;;;;;;;4.20;98.91;152441.84;5017844;28;20451;-78
2022/01/31 10:27:28;;;;;;;2.60;1.70;;;;;;;4.23;99.96;152449.59;5057194;28;20442;-79
2022/01/31 10:30:10;;;;;;;2.07;1.70;;;;;;;4.26;100.00;152457.31;5026183;28;20558;-79
2022/01/31 10:32:49;;;;;;;2.27;1.53;;;;;;;4.25;98.18;152456.03;5028350;28;20454;-79
2022/01/31 10:35:28;;;;;;;1.70;1.50;;;;;;;4.27;99.63;152461.16;5051057;28;20497;-79
2022/01/31 10:38:10;;;;;;;2.90;1.77;;;;;;;4.30;97.20;152467.59;5039035;28;21006;-80
2022/01/31 10:44:23;;;;;;;1.90;1.70;;;;;;;4.37;94.67;152485.63;5037873;28;20448;-80
2022/01/31 10:53:00;;;;;;;6.43;2.03;;;;;;;4.48;94.35;152513.97;5047285;28;20445;-80
2022/01/31 10:55:36;;;;;;;2.47;1.47;;;;;;;4.51;94.35;152521.69;5055074;28;20456;-80
2022/01/31 10:58:13;;;;;;;2.23;1.60;;;;;;;4.55;93.58;152530.72;5054441;28;20884;-79
2022/01/31 11:00:48;;;;;;;2.73;1.87;;;;;;;4.58;92.79;152539.72;5071963;28;20448;-80
2022/01/31 11:03:30;;;;;;;2.87;1.70;;;;;;;4.71;92.89;152571.97;5042818;28;20461;-80
2022/01/31 11:06:09;;;;;;;2.73;1.60;;;;;;;4.67;96.30;152561.63;5052267;28;20925;-80
2022/01/31 11:08:45;;;;;;;2.80;1.63;;;;;;;4.62;93.49;152550.06;5071613;28;20437;-79
2022/01/31 11:11:20;;;;;;;2.37;1.60;;;;;;;4.63;93.50;152552.59;5046732;28;20440;-79
2022/01/31 11:13:56;;;;;;;1.83;1.43;;;;;;;4.72;91.84;152574.50;5033678;28;20461;-79
2022/01/31 11:16:33;;;;;;;3.20;1.70;;;;;;;4.66;91.27;152560.34;5054297;28;20449;-79
2022/01/31 11:19:10;;;;;;;2.90;1.50;;;;;;;4.67;91.99;152562.94;5054629;28;20493;-79
2022/01/31 11:21:49;;;;;;;2.60;1.63;;;;;;;4.71;92.78;152571.97;5052348;28;20458;-79
2022/01/31 11:24:30;;;;;;;2.40;1.33;;;;;;;4.79;90.64;152593.84;5053034;28;22284;-79
2022/01/31 11:27:10;;;;;;;3.23;1.67;;;;;;;4.85;90.58;152609.31;5054966;28;20452;-79
2022/01/31 11:29:47;;;;;;;3.50;1.77;;;;;;;4.84;92.26;152606.72;5108876;22;20480;-80
2022/01/31 11:32:23;;;;;;;3.70;1.77;;;;;;;4.86;93.25;152611.91;5042108;28;20460;-80
2022/01/31 11:34:59;;;;;;;2.10;1.70;;;;;;;4.77;92.43;152588.69;5058283;28;20456;-80
2022/01/31 11:37:37;;;;;;;2.20;1.57;;;;;;;4.78;90.30;152590.00;5061106;28;20478;-80
2022/01/31 11:40:14;;;;;;;2.20;1.37;;;;;;;4.80;91.50;152596.44;5061715;28;20536;-80
2022/01/31 11:42:51;;;;;;;3.50;2.30;;;;;;;4.78;92.08;152590.00;5050880;28;20453;-80
2022/01/31 11:45:30;;;;;;;1.47;1.27;;;;;;;4.77;91.63;152587.41;5027790;28;20963;-80
2022/01/31 11:48:07;;;;;;;2.17;1.40;;;;;;;4.69;92.72;152568.06;5052750;28;20453;-80
2022/01/31 11:50:44;;;;;;;3.67;2.03;;;;;;;4.70;93.28;152569.38;5040601;28;20445;-80
2022/01/31 11:53:29;;;;;;;1.40;1.27;;;;;;;4.54;95.10;152528.13;5056546;28;20445;-80
2022/01/31 11:56:09;;;;;;;4.47;1.93;;;;;;;4.54;94.31;152528.13;5039601;28;20789;-81
2022/01/31 11:58:46;;;;;;;2.13;1.50;;;;;;;4.54;94.17;152528.13;5063991;28;20477;-80
2022/01/31 12:01:23;;;;;;;2.30;1.10;;;;;;;4.53;95.64;152525.53;5040799;28;21025;-80
2022/01/31 12:04:02;;;;;;;2.33;1.40;;;;;;;4.52;94.44;152524.28;5038148;28;20557;-80
2022/01/31 12:06:38;;;;;;;4.30;1.90;;;;;;;4.54;94.34;152528.13;5049699;28;20672;-80
2022/01/31 12:09:18;;;;;;;4.53;1.57;;;;;;;4.47;93.54;152511.41;5093201;28;20483;-80
2022/01/31 12:12:03;;;;;;;4.17;1.77;;;;;;;4.39;94.78;152490.81;5074771;28;20804;-80
2022/01/31 12:14:49;;;;;;;6.67;1.73;;;;;;;4.31;96.73;152470.19;5077549;28;20456;-80
2022/01/31 12:17:39;;;;;;;1.73;1.30;;;;;;;4.29;95.13;152466.31;5058511;28;20437;-80
2022/01/31 12:21:59;;;;;;;2.20;1.30;;;;;;;4.33;95.75;152475.34;5073231;28;20433;-80
2022/01/31 12:23:49;;;;;;;3.60;1.93;;;;;;;4.42;95.37;152497.25;5074858;28;20471;-80
2022/01/31 12:26:30;;;;;;;2.23;1.40;;;;;;;4.38;98.13;152486.91;5075435;28;20718;-80
2022/01/31 12:29:08;;;;;;;4.30;1.63;;;;;;;4.35;97.26;152480.47;5087752;28;20492;-80